메인 페이지
METAR-TAF:

METAR-TAF

공항 :

Altus Air Force Base

Altus, 오클라호마, 미국

위도: 34-39N, 경도: 099-16W, 고도: 420m

현재 날씨관측

예보는 32분 전, 14:56시(UTC)에 발표되었습니다.
13kt
온도 16°C
습도 82%
기압 1020 hPa
시정: 16.1km
고도 1500ft 상공 구름 많음
고도 14000ft 상공 구름 많음

METAR: KLTS 201456Z AUTO 36013KT 10SM BKN015 BKN140 16/13 A3012 RMK AO2 CIG 014 RWY35R SLP191 60001 T01640125 53023 $

시각: 10:28 (15:28 UTC)


TAF: 누락

4,000개 이상의 공항 관측 자료 및 예보 (METAR 및 TAF 보고).

지도상에서 검색 가능한 기상관측소가 노란 점과 빨간 점으로 표시되어 있습니다.

기상관측소 명을 보려면 표시 위로 마우스를 이동하세요.

날씨 관측과 예보를 보려면 클릭하세요.

지도 변경 : 확대하려면 엑스 표시가 있는 녹색 버튼, 축소하려면 빼기 표시가 있는 녹색 버튼, 다음 페이지의 지도를 보려면 녹색 화살표를 클릭하세요.


METAR-TAF: